Time;durP1;ratioP1;P1;durP2;ratioP2;P2;SDS_P1;SDS_P2;PMS_P1;PMS_P2;Temp;Humidity;BMP_temperature;BMP_pressure;BME280_temperature;BME280_humidity;BME280_pressure;Samples;Min_cycle;Max_cycle;Signal;HPM_P1;HPM_P2
2024/01/29 00:00:13;;;;;;;4.68;2.13;;;;;;;-146.25;85.04;52621.66;2104934;28;33278;-63
2024/01/29 00:01:14;;;;;;;3.85;1.77;;;;;;;-146.25;85.09;52619.63;2105490;28;33409;-64
2024/01/29 00:02:16;;;;;;;3.17;1.60;;;;;;;-146.25;85.50;52583.13;2104896;28;33694;-65
2024/01/29 00:03:18;;;;;;;3.90;1.55;;;;;;;-146.25;85.39;52601.38;2105470;28;33598;-64
2024/01/29 00:04:20;;;;;;;4.10;1.75;;;;;;;-146.25;85.27;52652.06;2105132;28;34447;-64
2024/01/29 00:05:22;;;;;;;4.07;1.60;;;;;;;-146.25;85.37;52627.75;2105198;28;37193;-64
2024/01/29 00:06:26;;;;;;;6.00;1.83;;;;;;;-146.25;85.64;52619.63;2105499;28;35749;-64
2024/01/29 00:07:27;;;;;;;7.47;2.17;;;;;;;-146.25;85.49;52591.25;2105365;28;35398;-64
2024/01/29 00:08:32;;;;;;;3.95;1.77;;;;;;;-146.25;85.88;52639.91;2104778;28;37299;-64
2024/01/29 00:09:34;;;;;;;3.25;1.83;;;;;;;-146.25;85.87;52643.97;2105438;28;33683;-64
2024/01/29 00:10:37;;;;;;;3.65;1.75;;;;;;;-146.25;85.72;52619.63;2104819;28;36394;-64
2024/01/29 00:11:38;;;;;;;4.38;1.90;;;;;;;-146.25;86.13;52607.47;2105424;28;31457;-64
2024/01/29 00:12:44;;;;;;;5.18;2.25;;;;;;;-146.25;86.59;52621.66;2105548;28;20055;-64
2024/01/29 00:13:46;;;;;;;3.75;1.40;;;;;;;-146.25;86.90;52613.53;2105003;28;38690;-64
2024/01/29 00:14:52;;;;;;;5.10;1.95;;;;;;;-146.25;86.86;52605.44;2105359;28;33529;-63
2024/01/29 00:15:54;;;;;;;4.63;2.05;;;;;;;-146.25;87.15;52611.50;2105302;28;38249;-64
2024/01/29 00:16:56;;;;;;;3.45;1.63;;;;;;;-146.25;87.32;52662.22;2105013;28;32551;-64
2024/01/29 00:17:58;;;;;;;4.07;1.83;;;;;;;-146.25;87.58;52625.72;2105269;28;38444;-64
2024/01/29 00:19:03;;;;;;;4.13;1.70;;;;;;;-146.25;88.07;52615.56;2105078;28;33513;-64
2024/01/29 00:20:09;;;;;;;4.30;2.00;;;;;;;-146.25;88.47;52619.63;2104829;28;29988;-64
2024/01/29 00:21:12;;;;;;;4.75;2.05;;;;;;;-146.25;88.49;52615.56;2104936;28;36003;-64
2024/01/29 00:22:16;;;;;;;3.47;1.70;;;;;;;-146.25;88.42;52639.91;2105249;28;33451;-64
2024/01/29 00:23:18;;;;;;;4.15;1.67;;;;;;;-146.25;88.84;52603.41;2096040;28;34293;-65
2024/01/29 00:24:22;;;;;;;3.33;1.92;;;;;;;-146.25;89.33;52627.75;2096620;28;38302;-64
2024/01/29 00:25:24;;;;;;;4.78;2.15;;;;;;;-146.25;89.74;52645.97;2104900;28;33671;-64
2024/01/29 00:26:26;;;;;;;3.70;1.50;;;;;;;-146.25;90.21;52619.63;2104991;28;36203;-64
2024/01/29 00:27:27;;;;;;;2.97;1.73;;;;;;;-146.25;90.51;52575.00;2105426;28;36396;-64
2024/01/29 00:28:29;;;;;;;4.03;1.60;;;;;;;-146.25;90.85;52625.72;2105419;28;32102;-64
2024/01/29 00:29:33;;;;;;;4.18;1.88;;;;;;;-146.25;91.02;52621.66;2104791;28;33564;-64
2024/01/29 00:30:37;;;;;;;4.18;1.67;;;;;;;-146.25;91.20;52591.25;2105127;28;34323;-64
2024/01/29 00:31:39;;;;;;;4.25;1.58;;;;;;;-146.25;91.51;52633.81;2105026;28;30293;-65
2024/01/29 00:32:40;;;;;;;3.33;1.60;;;;;;;-146.25;92.16;52635.84;2105030;28;35035;-64
2024/01/29 00:33:43;;;;;;;5.28;1.83;;;;;;;-146.25;92.59;52617.59;2105124;28;36164;-64
2024/01/29 00:34:46;;;;;;;2.92;1.65;;;;;;;-146.25;93.15;52625.72;2096120;28;35226;-62
2024/01/29 00:35:48;;;;;;;3.10;1.70;;;;;;;-146.25;93.92;52643.97;2097053;28;34089;-64
2024/01/29 00:36:49;;;;;;;4.47;1.70;;;;;;;-146.25;94.64;52635.84;2105052;28;35337;-64
2024/01/29 00:37:54;;;;;;;3.05;1.70;;;;;;;-146.25;94.51;52607.47;2104666;28;37293;-64
2024/01/29 00:38:56;;;;;;;2.95;1.98;;;;;;;-146.25;95.27;52670.31;2104881;28;35491;-64
2024/01/29 00:39:57;;;;;;;3.80;1.80;;;;;;;-146.25;95.19;52593.25;2104810;28;33925;-64
2024/01/29 00:41:03;;;;;;;3.83;2.08;;;;;;;-146.25;95.28;52615.56;2105008;28;34726;-65
2024/01/29 00:42:05;;;;;;;3.58;1.67;;;;;;;-146.25;95.71;52662.22;2105007;28;34080;-63
2024/01/29 00:43:07;;;;;;;4.60;2.03;;;;;;;-146.25;95.84;52611.50;2104931;28;35025;-64
2024/01/29 00:44:08;;;;;;;3.90;1.70;;;;;;;-146.25;96.57;52617.59;2095889;28;38529;-64
2024/01/29 00:45:10;;;;;;;3.65;1.67;;;;;;;-146.25;96.66;52619.63;2096067;28;34611;-64
2024/01/29 00:46:13;;;;;;;3.50;1.75;;;;;;;-146.25;96.23;52587.19;2105173;28;31395;-64
2024/01/29 00:47:15;;;;;;;3.90;1.73;;;;;;;-146.25;95.95;52613.53;2105160;28;33296;-63
2024/01/29 00:48:17;;;;;;;2.67;1.40;;;;;;;-146.25;96.00;52613.53;2095996;28;36396;-65
2024/01/29 00:49:19;;;;;;;3.67;1.90;;;;;;;-146.25;95.54;52660.19;2096337;28;33915;-64
2024/01/29 00:50:21;;;;;;;4.57;1.75;;;;;;;-146.25;95.82;52599.34;2104366;28;35387;-64
2024/01/29 00:51:22;;;;;;;3.70;2.03;;;;;;;-146.25;95.55;52601.38;2096410;28;35254;-63
2024/01/29 00:52:24;;;;;;;4.05;1.50;;;;;;;-146.25;95.67;52611.50;2087920;28;33859;-64
2024/01/29 00:53:26;;;;;;;2.72;1.45;;;;;;;-146.25;95.92;52639.91;2095719;28;33790;-65
2024/01/29 00:54:31;;;;;;;2.72;1.50;;;;;;;-146.25;95.31;52613.53;2096021;28;35889;-64
2024/01/29 00:55:33;;;;;;;3.22;1.52;;;;;;;-146.25;95.33;52615.56;2088401;28;33342;-65
2024/01/29 00:56:34;;;;;;;3.50;1.33;;;;;;;-146.25;95.40;52607.47;2096291;28;34368;-64
2024/01/29 00:57:36;;;;;;;5.05;1.70;;;;;;;-146.25;94.77;52621.66;2104965;28;35187;-64
2024/01/29 00:58:43;;;;;;;4.28;1.48;;;;;;;-146.25;94.98;52585.16;2104878;28;36722;-64
2024/01/29 00:59:44;;;;;;;3.97;1.58;;;;;;;-146.25;95.19;52613.53;2105085;28;33842;-64
2024/01/29 01:00:49;;;;;;;2.30;1.10;;;;;;;-146.25;95.22;52645.97;2105275;28;20033;-64
2024/01/29 01:01:53;;;;;;;4.85;1.40;;;;;;;-146.25;95.31;52566.91;2104742;28;35389;-64
2024/01/29 01:02:55;;;;;;;2.95;1.42;;;;;;;-146.25;95.29;52605.44;2104815;28;33847;-64
2024/01/29 01:03:57;;;;;;;6.38;1.58;;;;;;;-146.25;95.38;52611.50;2104609;28;38048;-64
2024/01/29 01:04:58;;;;;;;3.42;1.40;;;;;;;-146.25;95.66;52631.78;2104623;28;32745;-64
2024/01/29 01:06:00;;;;;;;1.85;1.13;;;;;;;-146.25;95.91;52615.56;2104943;28;25945;-65
2024/01/29 01:07:02;;;;;;;3.05;1.02;;;;;;;-146.25;95.98;52599.34;2104885;28;36444;-64
2024/01/29 01:08:04;;;;;;;2.33;1.48;;;;;;;-146.25;95.64;52583.13;2104961;28;35889;-64
2024/01/29 01:09:09;;;;;;;3.00;1.33;;;;;;;-146.25;95.48;52583.13;2104592;28;34721;-64
2024/01/29 01:10:11;;;;;;;2.83;1.35;;;;;;;-146.25;95.13;52611.50;2104704;28;32555;-64
2024/01/29 01:11:13;;;;;;;2.83;1.15;;;;;;;-146.25;95.47;52599.34;2104924;28;32403;-64
2024/01/29 01:12:17;;;;;;;3.17;1.50;;;;;;;-146.25;96.06;52603.41;2105003;28;37620;-65
2024/01/29 01:13:21;;;;;;;3.65;1.30;;;;;;;-146.25;95.74;52603.41;2104901;28;35061;-65
2024/01/29 01:14:23;;;;;;;3.08;1.25;;;;;;;-146.25;96.49;52617.59;2104867;28;34520;-64
2024/01/29 01:15:25;;;;;;;2.50;1.25;;;;;;;-146.25;96.02;52593.25;2104574;28;38155;-64
2024/01/29 01:16:27;;;;;;;2.85;1.20;;;;;;;-146.25;97.07;52607.47;2104812;28;30809;-64
2024/01/29 01:17:28;;;;;;;3.70;0.95;;;;;;;-146.25;96.45;52633.81;2104915;28;35720;-64
2024/01/29 01:18:30;;;;;;;4.18;1.10;;;;;;;-146.25;96.72;52627.75;2104848;28;34375;-65
2024/01/29 01:19:32;;;;;;;3.55;1.40;;;;;;;-146.25;96.40;52625.72;2104186;28;35289;-64
2024/01/29 01:20:34;;;;;;;2.00;1.10;;;;;;;-146.25;96.09;52607.47;2104658;28;35252;-64
2024/01/29 01:21:37;;;;;;;3.10;0.80;;;;;;;-146.25;95.86;52623.69;2105151;28;20024;-64
2024/01/29 01:22:39;;;;;;;2.88;1.00;;;;;;;-146.25;96.06;52607.47;2105064;28;36128;-64
2024/01/29 01:23:43;;;;;;;3.25;1.20;;;;;;;-146.25;96.56;52637.88;2104591;28;34273;-64
2024/01/29 01:24:45;;;;;;;2.35;1.10;;;;;;;-146.25;96.39;52607.47;2096198;28;20057;-64
2024/01/29 01:25:47;;;;;;;3.60;1.40;;;;;;;-146.25;95.84;52597.31;2095557;28;34308;-64
2024/01/29 01:26:48;;;;;;;1.73;1.00;;;;;;;-146.25;95.46;52627.75;2104805;28;38984;-65
2024/01/29 01:27:53;;;;;;;2.22;1.25;;;;;;;-146.25;94.95;52615.56;2104598;28;35657;-63
2024/01/29 01:28:55;;;;;;;4.75;1.35;;;;;;;-146.25;94.77;52601.38;2104859;28;32795;-62
2024/01/29 01:29:57;;;;;;;2.58;1.17;;;;;;;-146.25;94.63;52603.41;2104528;28;34519;-64
2024/01/29 01:30:59;;;;;;;3.70;1.30;;;;;;;-146.25;95.13;52603.41;2104786;28;33360;-63
2024/01/29 01:32:00;;;;;;;2.08;1.00;;;;;;;-146.25;94.54;52645.97;2104614;28;30657;-63
2024/01/29 01:33:03;;;;;;;3.72;1.30;;;;;;;-146.25;94.91;52639.91;2105113;28;20039;-63
2024/01/29 01:34:04;;;;;;;2.85;1.23;;;;;;;-146.25;95.14;52607.47;2104603;28;32961;-64
2024/01/29 01:35:07;;;;;;;1.75;0.90;;;;;;;-146.25;95.23;52627.75;2105249;28;20159;-65
2024/01/29 01:36:09;;;;;;;3.58;1.00;;;;;;;-146.25;94.89;52619.63;2104723;28;35141;-64
2024/01/29 01:37:11;;;;;;;4.13;0.98;;;;;;;-146.25;94.92;52599.34;2104555;28;33851;-63
2024/01/29 01:38:12;;;;;;;1.55;0.80;;;;;;;-146.25;94.90;52558.78;2104506;28;32410;-63
2024/01/29 01:39:14;;;;;;;2.63;1.00;;;;;;;-146.25;94.41;52635.84;2095779;28;34987;-65
2024/01/29 01:40:16;;;;;;;4.40;0.90;;;;;;;-146.25;94.90;52643.97;2095539;28;36263;-64
2024/01/29 01:41:18;;;;;;;2.78;1.20;;;;;;;-146.25;94.66;52617.59;2104840;28;32578;-63
2024/01/29 01:42:20;;;;;;;4.32;1.08;;;;;;;-146.25;94.54;52639.91;2104645;28;32285;-62
2024/01/29 01:43:26;;;;;;;1.65;1.05;;;;;;;-146.25;94.87;52635.84;2104409;28;34211;-64
2024/01/29 01:44:28;;;;;;;2.50;1.20;;;;;;;-146.25;95.24;52631.78;2104518;28;36332;-64
2024/01/29 01:45:29;;;;;;;2.33;1.00;;;;;;;-146.25;94.75;52658.16;2095702;28;33866;-64
2024/01/29 01:46:31;;;;;;;2.13;1.10;;;;;;;-146.25;94.64;52652.06;2095304;28;38613;-65
2024/01/29 01:47:35;;;;;;;2.75;1.20;;;;;;;-146.25;94.77;52619.63;2104938;28;36723;-65
2024/01/29 01:48:37;;;;;;;3.20;1.20;;;;;;;-146.25;94.70;52656.13;2104475;28;33288;-64
2024/01/29 01:49:40;;;;;;;4.65;1.05;;;;;;;-146.25;95.22;52575.00;2095657;28;37785;-63
2024/01/29 01:50:42;;;;;;;4.32;1.20;;;;;;;-146.25;95.24;52611.50;2095268;28;34926;-63
2024/01/29 01:51:44;;;;;;;2.70;1.27;;;;;;;-146.25;95.23;52591.25;2096524;28;20048;-62
2024/01/29 01:52:47;;;;;;;2.50;1.15;;;;;;;-146.25;95.76;52607.47;2095550;28;38981;-63
2024/01/29 01:53:59;;;;;;;2.08;1.08;;;;;;;-146.25;95.78;52643.97;2104504;28;34890;-63
2024/01/29 01:55:04;;;;;;;3.85;1.10;;;;;;;-146.25;95.86;52639.91;2095733;28;35776;-64
2024/01/29 01:56:06;;;;;;;1.55;0.98;;;;;;;-146.25;96.07;52639.91;2096668;28;35103;-64
2024/01/29 01:57:09;;;;;;;1.90;1.05;;;;;;;-146.25;96.04;52599.34;2095761;28;34579;-63
2024/01/29 01:58:13;;;;;;;3.75;1.30;;;;;;;-146.25;96.16;52615.56;2088573;28;21014;-63
2024/01/29 01:59:18;;;;;;;3.22;1.10;;;;;;;-146.25;96.22;52629.75;2087728;28;34446;-63
2024/01/29 02:00:21;;;;;;;2.92;0.85;;;;;;;-146.25;96.25;52607.47;2088238;28;36793;-63
2024/01/29 02:01:27;;;;;;;3.75;1.05;;;;;;;-146.25;95.74;52654.09;2096449;28;25484;-63
2024/01/29 02:02:31;;;;;;;2.60;1.15;;;;;;;-146.25;95.67;52639.91;2096180;28;20033;-63
2024/01/29 02:03:33;;;;;;;2.53;0.90;;;;;;;-146.25;95.58;52648.00;2096630;28;30143;-63
2024/01/29 02:04:35;;;;;;;4.10;1.02;;;;;;;-146.25;94.82;52599.34;2103700;28;36743;-63
2024/01/29 02:05:37;;;;;;;2.83;1.17;;;;;;;-146.25;95.01;52623.69;2103901;28;36076;-63
2024/01/29 02:06:39;;;;;;;2.95;0.98;;;;;;;-146.25;94.70;52627.75;2095674;28;34087;-64
2024/01/29 02:07:41;;;;;;;3.80;1.02;;;;;;;-146.25;94.84;52623.69;2095417;28;37090;-63
2024/01/29 02:08:43;;;;;;;2.70;1.20;;;;;;;-146.25;95.12;52611.50;2105274;28;20898;-65
2024/01/29 02:09:45;;;;;;;3.47;1.02;;;;;;;-146.25;95.12;52609.50;2104389;28;32493;-63
2024/01/29 02:10:49;;;;;;;3.35;1.20;;;;;;;-146.25;94.74;52623.69;2095013;28;36863;-64
2024/01/29 02:11:51;;;;;;;2.40;0.88;;;;;;;-146.25;94.39;52637.88;2087537;28;32149;-62
2024/01/29 02:12:53;;;;;;;2.78;1.13;;;;;;;-146.25;95.10;52611.50;2095833;28;31300;-62
2024/01/29 02:13:55;;;;;;;2.83;1.35;;;;;;;-146.25;94.76;52603.41;2095436;28;36925;-62
2024/01/29 02:14:57;;;;;;;3.58;1.10;;;;;;;-146.25;93.92;52611.50;2095628;28;29275;-63
2024/01/29 02:16:00;;;;;;;2.70;1.10;;;;;;;-146.25;93.93;52629.75;2105155;28;20167;-63
2024/01/29 02:17:03;;;;;;;3.10;1.10;;;;;;;-146.25;93.82;52587.19;2104268;28;28877;-64
2024/01/29 02:18:05;;;;;;;2.90;1.10;;;;;;;-146.25;93.65;52635.84;2095483;28;34870;-64
2024/01/29 02:19:15;;;;;;;3.08;1.10;;;;;;;-146.25;93.66;52623.69;2096287;28;20037;-65
2024/01/29 02:20:19;;;;;;;;;;;;;;;-146.25;93.54;52583.13;2095940;28;37701;-64
2024/01/29 02:21:21;;;;;;;3.75;1.27;;;;;;;-146.25;94.13;52625.72;2097826;28;20019;-64
2024/01/29 02:22:25;;;;;;;4.55;1.25;;;;;;;-146.25;94.05;52617.59;2104365;28;37839;-64
2024/01/29 02:23:29;;;;;;;2.30;0.93;;;;;;;-146.25;93.86;52601.38;2104060;28;35866;-64
2024/01/29 02:24:31;;;;;;;3.45;1.13;;;;;;;-146.25;93.69;52611.50;2104850;28;20037;-64
2024/01/29 02:25:33;;;;;;;2.38;1.25;;;;;;;-146.25;93.61;52615.56;2104262;28;35348;-65
2024/01/29 02:26:35;;;;;;;2.92;1.05;;;;;;;-146.25;93.82;52641.94;2104482;28;32995;-64
2024/01/29 02:27:37;;;;;;;2.22;1.10;;;;;;;-146.25;93.62;52611.50;2104936;28;20879;-65
2024/01/29 02:28:39;;;;;;;2.83;0.90;;;;;;;-146.25;94.15;52654.09;2104354;28;36119;-63
2024/01/29 02:29:41;;;;;;;3.13;1.13;;;;;;;-146.25;94.09;52631.78;2103970;28;37636;-64
2024/01/29 02:30:43;;;;;;;2.55;0.85;;;;;;;-146.25;93.69;52609.50;2104673;28;20139;-64
2024/01/29 02:31:45;;;;;;;3.70;1.30;;;;;;;-146.25;93.94;52656.13;2103629;28;37150;-64
2024/01/29 02:32:46;;;;;;;2.88;0.90;;;;;;;-146.25;93.72;52599.34;2104241;28;34772;-64
2024/01/29 02:33:48;;;;;;;2.63;1.02;;;;;;;-146.25;93.98;52595.28;2104489;28;33109;-64
2024/01/29 02:34:50;;;;;;;1.70;1.08;;;;;;;-146.25;93.72;52609.50;2103414;28;36165;-64
2024/01/29 02:35:52;;;;;;;2.58;1.15;;;;;;;-146.25;94.26;52579.06;2103246;28;31614;-64
2024/01/29 02:36:54;;;;;;;3.92;1.08;;;;;;;-146.25;93.84;52645.97;2104564;28;34708;-63
2024/01/29 02:37:56;;;;;;;3.45;1.20;;;;;;;-146.25;94.02;52623.69;2104350;28;33374;-63
2024/01/29 02:38:58;;;;;;;3.55;1.40;;;;;;;-146.25;94.00;52615.56;2104541;28;33145;-62
2024/01/29 02:39:59;;;;;;;2.50;1.15;;;;;;;-146.25;94.05;52605.44;2104043;28;38913;-62
2024/01/29 02:41:01;;;;;;;4.63;1.30;;;;;;;-146.25;93.84;52629.75;2104187;28;31212;-64
2024/01/29 02:42:03;;;;;;;1.80;1.05;;;;;;;-146.25;94.56;52587.19;2104483;28;38396;-63
2024/01/29 02:43:05;;;;;;;3.47;1.17;;;;;;;-146.25;94.32;52627.75;2104358;28;31771;-62
2024/01/29 02:44:07;;;;;;;3.08;1.50;;;;;;;-146.25;94.39;52627.75;2104702;28;20040;-63
2024/01/29 02:45:09;;;;;;;3.05;1.42;;;;;;;-146.25;94.90;52591.25;2104403;28;36003;-64
2024/01/29 02:46:11;;;;;;;2.28;0.90;;;;;;;-146.25;94.56;52589.22;2104319;28;33992;-65
2024/01/29 02:47:15;;;;;;;2.20;1.20;;;;;;;-146.25;94.87;52619.63;2104031;28;33366;-63
2024/01/29 02:48:17;;;;;;;2.40;1.42;;;;;;;-146.25;95.65;52650.03;2104140;28;37590;-65
2024/01/29 02:49:19;;;;;;;4.28;1.48;;;;;;;-146.25;95.36;52617.59;2104603;28;30250;-64
2024/01/29 02:50:25;;;;;;;2.70;1.05;;;;;;;-146.25;95.36;52595.28;2103911;28;33357;-65
2024/01/29 02:51:29;;;;;;;2.78;1.20;;;;;;;-146.25;95.85;52599.34;2104090;28;38514;-64
2024/01/29 02:52:31;;;;;;;3.70;1.30;;;;;;;-146.25;95.97;52597.31;2104669;28;20041;-64
2024/01/29 02:53:33;;;;;;;2.83;1.20;;;;;;;-146.25;96.17;52593.25;2103907;28;38425;-64
2024/01/29 02:54:37;;;;;;;4.65;1.52;;;;;;;-146.25;96.18;52619.63;2104426;28;33205;-64
2024/01/29 02:55:39;;;;;;;2.95;1.35;;;;;;;-146.25;96.50;52654.09;2104547;28;21677;-64
2024/01/29 02:56:41;;;;;;;2.78;1.30;;;;;;;-146.25;96.63;52639.91;2105227;28;35234;-65
2024/01/29 02:57:42;;;;;;;2.22;0.85;;;;;;;-146.25;96.06;52635.84;2105974;28;32023;-63
2024/01/29 02:58:44;;;;;;;2.03;1.02;;;;;;;-146.25;96.61;52623.69;2107124;28;20036;-65
2024/01/29 02:59:46;;;;;;;1.65;0.85;;;;;;;-146.25;96.72;52629.75;2106121;28;33677;-63
2024/01/29 03:00:48;;;;;;;2.35;1.10;;;;;;;-146.25;96.83;52613.53;2102916;28;32720;-63
2024/01/29 03:01:50;;;;;;;1.98;1.25;;;;;;;-146.25;96.58;52587.19;2105000;28;20040;-64
2024/01/29 03:02:51;;;;;;;2.00;1.05;;;;;;;-146.25;97.08;52615.56;2103823;28;38439;-63
2024/01/29 03:03:55;;;;;;;2.33;1.20;;;;;;;-146.25;97.83;52643.97;2104339;28;35360;-64
2024/01/29 03:04:57;;;;;;;5.47;1.40;;;;;;;-146.25;98.03;52613.53;2104339;28;32162;-64
2024/01/29 03:06:01;;;;;;;1.70;1.00;;;;;;;-146.25;98.57;52623.69;2104646;28;20036;-63
2024/01/29 03:07:03;;;;;;;2.25;1.33;;;;;;;-146.25;98.25;52611.50;2104171;28;35425;-63
2024/01/29 03:08:06;;;;;;;2.95;1.10;;;;;;;-146.25;98.78;52623.69;2104389;28;28622;-63
2024/01/29 03:09:07;;;;;;;3.88;1.30;;;;;;;-146.25;99.81;52603.41;2103922;28;31435;-64
2024/01/29 03:10:10;;;;;;;4.30;1.00;;;;;;;-146.25;100.00;52585.16;2104751;28;20047;-64
2024/01/29 03:11:12;;;;;;;3.50;1.38;;;;;;;-146.25;99.44;52619.63;2103874;28;34613;-63
2024/01/29 03:12:14;;;;;;;3.28;1.48;;;;;;;-146.25;99.93;52613.53;2104915;28;20072;-62
2024/01/29 03:13:16;;;;;;;2.97;1.08;;;;;;;-146.25;99.65;52629.75;2103771;28;34807;-63
2024/01/29 03:14:17;;;;;;;4.03;1.42;;;;;;;-146.25;100.00;52615.56;2103553;28;31989;-64
2024/01/29 03:15:19;;;;;;;3.25;1.30;;;;;;;-146.25;100.00;52605.44;2104526;28;35046;-64
2024/01/29 03:16:25;;;;;;;2.00;0.98;;;;;;;-146.25;100.00;52652.06;2105036;28;38237;-64
2024/01/29 03:17:27;;;;;;;3.70;1.40;;;;;;;-146.25;100.00;52607.47;2105451;28;33165;-63
2024/01/29 03:18:29;;;;;;;2.72;1.30;;;;;;;-146.25;100.00;52607.47;2106591;28;20036;-63
2024/01/29 03:19:33;;;;;;;2.63;1.42;;;;;;;-146.25;100.00;52597.31;2105411;28;34571;-63
2024/01/29 03:20:35;;;;;;;4.07;1.23;;;;;;;-146.25;100.00;52599.34;2105449;28;34061;-64
2024/01/29 03:21:37;;;;;;;3.55;1.42;;;;;;;-146.25;100.00;52656.13;2105499;28;35065;-61
2024/01/29 03:22:39;;;;;;;2.08;1.15;;;;;;;-146.25;100.00;52635.84;2105506;28;35905;-64
2024/01/29 03:23:40;;;;;;;2.42;1.15;;;;;;;-146.25;100.00;52637.88;2105675;28;32000;-63
2024/01/29 03:24:44;;;;;;;2.78;1.42;;;;;;;-146.25;100.00;52611.50;2105300;28;34646;-64
2024/01/29 03:25:46;;;;;;;3.25;1.50;;;;;;;-146.25;100.00;52615.56;2105278;28;37151;-64
2024/01/29 03:26:50;;;;;;;2.85;1.15;;;;;;;-146.25;100.00;52611.50;2106253;28;20180;-63
2024/01/29 03:27:53;;;;;;;3.30;1.40;;;;;;;-146.25;100.00;52593.25;2105010;28;37119;-63
2024/01/29 03:28:55;;;;;;;2.17;1.45;;;;;;;-146.25;100.00;52654.09;2096637;28;35866;-64
2024/01/29 03:29:57;;;;;;;2.45;1.20;;;;;;;-146.25;100.00;52599.34;2097280;28;20857;-65
2024/01/29 03:30:58;;;;;;;4.03;1.70;;;;;;;-146.25;100.00;52607.47;2096466;28;36871;-64
2024/01/29 03:32:00;;;;;;;2.90;1.60;;;;;;;-146.25;100.00;52631.78;2096741;28;34145;-63
2024/01/29 03:33:02;;;;;;;3.40;1.25;;;;;;;-146.25;100.00;52641.94;2106004;28;20090;-63
2024/01/29 03:34:04;;;;;;;2.95;1.65;;;;;;;-146.25;100.00;52648.00;2105634;28;36448;-63
2024/01/29 03:35:08;;;;;;;4.43;1.70;;;;;;;-146.25;100.00;52601.38;2105185;28;33572;-63
2024/01/29 03:36:09;;;;;;;3.65;1.77;;;;;;;-146.25;100.00;52631.78;2096775;28;20037;-64
2024/01/29 03:37:12;;;;;;;4.15;1.67;;;;;;;-146.25;100.00;52575.00;2096849;28;35197;-64
2024/01/29 03:38:13;;;;;;;3.17;1.40;;;;;;;-146.25;100.00;52635.84;2105688;28;33936;-63
2024/01/29 03:39:15;;;;;;;2.70;1.70;;;;;;;-146.25;100.00;52615.56;2105993;28;20366;-64
2024/01/29 03:40:17;;;;;;;3.78;1.58;;;;;;;-146.25;100.00;52621.66;2105177;28;36017;-62
2024/01/29 03:41:19;;;;;;;3.30;1.83;;;;;;;-146.25;100.00;52658.16;2105599;28;33709;-63
2024/01/29 03:42:21;;;;;;;3.45;1.70;;;;;;;-146.25;100.00;52583.13;2106173;28;20037;-62
2024/01/29 03:43:23;;;;;;;3.00;1.90;;;;;;;-146.25;100.00;52629.75;2104959;28;37243;-63
2024/01/29 03:44:27;;;;;;;3.97;1.70;;;;;;;-146.25;100.00;52599.34;2105669;28;35191;-62
2024/01/29 03:45:29;;;;;;;3.20;1.65;;;;;;;-146.25;100.00;52615.56;2104723;28;33930;-63
2024/01/29 03:46:31;;;;;;;2.22;1.40;;;;;;;-146.25;100.00;52615.56;2105361;28;20903;-65
2024/01/29 03:47:32;;;;;;;4.80;1.80;;;;;;;-146.25;100.00;52641.94;2105043;28;33658;-64
2024/01/29 03:48:34;;;;;;;1.75;1.30;;;;;;;-146.25;100.00;52629.75;2105785;28;35677;-64
2024/01/29 03:49:36;;;;;;;4.18;1.60;;;;;;;-146.25;100.00;52641.94;2105216;28;36188;-63
2024/01/29 03:50:38;;;;;;;2.75;1.65;;;;;;;-146.25;100.00;52650.03;2105825;28;20048;-64
2024/01/29 03:51:40;;;;;;;3.72;1.80;;;;;;;-146.25;100.00;52607.47;2105324;28;35567;-64
2024/01/29 03:52:44;;;;;;;2.53;1.60;;;;;;;-146.25;100.00;52611.50;2105180;28;38148;-65
2024/01/29 03:53:49;;;;;;;3.72;1.60;;;;;;;-146.25;100.00;52617.59;2105067;28;33877;-64
2024/01/29 03:54:51;;;;;;;4.00;1.85;;;;;;;-146.25;100.00;52652.06;2095970;28;35816;-65
2024/01/29 03:55:54;;;;;;;4.88;2.00;;;;;;;-146.25;100.00;52591.25;2097215;28;20032;-65
2024/01/29 03:56:56;;;;;;;4.30;1.80;;;;;;;-146.25;100.00;52635.84;2104907;28;34848;-65
2024/01/29 03:57:58;;;;;;;2.72;1.63;;;;;;;-146.25;100.00;52639.91;2104835;28;34098;-65
2024/01/29 03:59:03;;;;;;;3.05;1.75;;;;;;;-146.25;100.00;52629.75;2105206;28;34990;-64
2024/01/29 04:00:09;;;;;;;5.47;1.85;;;;;;;-146.25;100.00;52635.84;2104893;28;37477;-63
2024/01/29 04:01:25;;;;;;;2.50;1.65;;;;;;;-146.25;100.00;52599.34;2106529;28;20163;-64
2024/01/29 04:02:27;;;;;;;3.53;1.92;;;;;;;-146.25;100.00;52635.84;2105032;28;37575;-63
2024/01/29 04:03:29;;;;;;;3.70;1.90;;;;;;;-146.25;100.00;52627.75;2105608;28;33285;-63
2024/01/29 04:04:31;;;;;;;4.93;1.67;;;;;;;-146.25;100.00;52625.72;2105237;28;35657;-63
2024/01/29 04:05:33;;;;;;;2.40;1.70;;;;;;;-146.25;100.00;52587.19;2104759;28;38359;-64
2024/01/29 04:06:40;;;;;;;5.20;1.73;;;;;;;-146.25;100.00;52587.19;2106117;28;20988;-64
2024/01/29 04:07:42;;;;;;;4.13;1.95;;;;;;;-146.25;100.00;52656.13;2104880;28;34491;-64
2024/01/29 04:08:44;;;;;;;4.05;1.75;;;;;;;-146.25;100.00;52623.69;2105711;28;33211;-64
2024/01/29 04:09:48;;;;;;;3.97;2.35;;;;;;;-146.25;100.00;52662.22;2105101;28;34493;-64
2024/01/29 04:10:50;;;;;;;2.63;1.60;;;;;;;-146.25;100.00;52597.31;2105133;28;37427;-64
2024/01/29 04:11:52;;;;;;;3.40;1.52;;;;;;;-146.25;100.00;52609.50;2105522;28;31510;-64
2024/01/29 04:12:53;;;;;;;4.35;1.67;;;;;;;-146.25;100.00;52625.72;2105709;28;30076;-64
2024/01/29 04:13:55;;;;;;;4.32;2.00;;;;;;;-146.25;100.00;52595.28;2105253;28;34811;-63
2024/01/29 04:14:57;;;;;;;4.18;1.90;;;;;;;-146.25;100.00;52658.16;2105235;28;29722;-64
2024/01/29 04:15:58;;;;;;;4.03;1.73;;;;;;;-146.25;100.00;52627.75;2105215;28;33957;-65
2024/01/29 04:17:04;;;;;;;3.38;1.85;;;;;;;-146.25;100.00;52595.28;2096014;28;36090;-65
2024/01/29 04:18:08;;;;;;;4.45;1.90;;;;;;;-146.25;100.00;52670.31;2096954;28;34525;-64
2024/01/29 04:19:10;;;;;;;3.38;1.60;;;;;;;-146.25;100.00;52650.03;2105157;28;39377;-65
2024/01/29 04:20:14;;;;;;;3.28;1.73;;;;;;;-146.25;100.00;52631.78;2105663;28;20076;-64
2024/01/29 04:21:16;;;;;;;3.75;1.65;;;;;;;-146.25;100.00;52648.00;2104968;28;35582;-63
2024/01/29 04:22:18;;;;;;;4.20;1.88;;;;;;;-146.25;100.00;52611.50;2105233;28;30394;-64
2024/01/29 04:23:20;;;;;;;3.28;1.88;;;;;;;-146.25;100.00;52611.50;2106059;28;20040;-65
2024/01/29 04:24:21;;;;;;;3.45;1.80;;;;;;;-146.25;100.00;52607.47;2104889;28;37542;-64
2024/01/29 04:25:24;;;;;;;4.95;2.00;;;;;;;-146.25;100.00;52639.91;2104860;28;32085;-63
2024/01/29 04:26:26;;;;;;;3.97;1.83;;;;;;;-146.25;100.00;52593.25;2105833;28;20611;-63
2024/01/29 04:27:27;;;;;;;3.20;2.10;;;;;;;-146.25;100.00;52609.50;2104601;28;34241;-64
2024/01/29 04:28:29;;;;;;;4.10;1.95;;;;;;;-146.25;100.00;52643.97;2105156;28;33868;-63
2024/01/29 04:29:31;;;;;;;2.83;1.60;;;;;;;-146.25;100.00;52619.63;2105553;28;20930;-64
2024/01/29 04:30:33;;;;;;;4.65;2.10;;;;;;;-146.25;100.00;52595.28;2104873;28;33997;-63
2024/01/29 04:31:35;;;;;;;3.92;2.35;;;;;;;-146.25;100.00;52650.03;2105470;28;30637;-63
2024/01/29 04:32:37;;;;;;;3.72;2.22;;;;;;;-146.25;100.00;52627.75;2104815;28;38637;-63
2024/01/29 04:33:42;;;;;;;4.32;2.47;;;;;;;-146.25;100.00;52615.56;2105688;28;36483;-65
2024/01/29 04:34:44;;;;;;;7.18;3.00;;;;;;;-146.25;100.00;52637.88;2106294;28;20032;-64
2024/01/29 04:35:46;;;;;;;7.22;3.10;;;;;;;-146.25;100.00;52601.38;2104735;28;36916;-64
2024/01/29 04:36:48;;;;;;;6.93;3.13;;;;;;;-146.25;100.00;52615.56;2104785;28;34877;-64
2024/01/29 04:37:52;;;;;;;8.45;2.75;;;;;;;-146.25;100.00;52593.25;2105215;28;33988;-65
2024/01/29 04:38:53;;;;;;;8.77;2.67;;;;;;;-146.25;100.00;52639.91;2104975;28;32098;-63
2024/01/29 04:39:58;;;;;;;5.78;2.40;;;;;;;-146.25;100.00;52603.41;2095443;28;38143;-63
2024/01/29 04:40:59;;;;;;;8.75;2.70;;;;;;;-146.25;100.00;52605.44;2096422;28;36463;-63
2024/01/29 04:42:01;;;;;;;4.50;2.25;;;;;;;-146.25;100.00;52591.25;2105007;28;32725;-64
2024/01/29 04:43:03;;;;;;;5.97;2.55;;;;;;;-146.25;100.00;52607.47;2104511;28;37475;-63
2024/01/29 04:44:05;;;;;;;6.13;2.47;;;;;;;-146.25;100.00;52587.19;2105170;28;37531;-65
2024/01/29 04:45:07;;;;;;;4.95;1.98;;;;;;;-146.25;100.00;52609.50;2105321;28;20037;-63
2024/01/29 04:46:09;;;;;;;3.90;2.30;;;;;;;-146.25;100.00;52639.91;2105201;28;38761;-63